createdAt,value
2019-04-30T00:01:18.831Z,94311.52
2019-04-30T00:03:43.640Z,94317.98
2019-04-30T00:06:10.027Z,94316.69
2019-04-30T00:08:39.160Z,94313.00
2019-04-30T00:11:02.705Z,94309.89
2019-04-30T00:13:29.045Z,94305.30
2019-04-30T00:15:58.762Z,94307.22
2019-04-30T00:18:21.860Z,94304.93
2019-04-30T00:20:48.226Z,94306.80
2019-04-30T00:23:17.704Z,94299.53
2019-04-30T00:25:40.927Z,94285.81
2019-04-30T00:28:08.777Z,94281.12
2019-04-30T00:30:35.044Z,94278.20
2019-04-30T00:33:00.163Z,94274.02
2019-04-30T00:35:26.488Z,94274.48
2019-04-30T00:37:57.632Z,94269.92
2019-04-30T00:40:21.778Z,94273.80
2019-04-30T00:42:45.822Z,94286.09
2019-04-30T00:45:11.887Z,94288.52
2019-04-30T00:47:39.588Z,94281.54
2019-04-30T00:50:04.966Z,94281.70
2019-04-30T00:52:33.962Z,94272.67
2019-04-30T00:55:00.338Z,94267.03
2019-04-30T00:57:26.337Z,94270.19
2019-04-30T00:59:50.097Z,94274.69
2019-04-30T01:02:20.132Z,94280.66
2019-04-30T01:04:44.861Z,94283.08
2019-04-30T01:07:09.137Z,94282.52
2019-04-30T01:09:35.517Z,94282.77
2019-04-30T01:12:01.867Z,94274.21
2019-04-30T01:14:31.882Z,94279.37
2019-04-30T01:16:54.643Z,94283.08
2019-04-30T01:19:29.709Z,94274.69
2019-04-30T01:21:49.120Z,94288.88
2019-04-30T01:24:13.787Z,94284.34
2019-04-30T01:26:40.110Z,94276.73
2019-04-30T01:31:37.396Z,94274.63
2019-04-30T01:33:59.251Z,94265.75
2019-04-30T01:36:25.543Z,94276.73
2019-04-30T01:38:52.576Z,94279.13
2019-04-30T01:41:20.294Z,94271.57
2019-04-30T01:43:44.674Z,94279.47
2019-04-30T01:46:13.865Z,94267.64
2019-04-30T01:48:39.206Z,94264.94
2019-04-30T01:51:03.659Z,94268.46
2019-04-30T01:53:30.113Z,94269.56
2019-04-30T01:55:56.505Z,94270.51
2019-04-30T01:58:22.890Z,94258.90
2019-04-30T02:00:49.442Z,94255.66
2019-04-30T02:03:15.590Z,94255.03
2019-04-30T02:05:41.990Z,94244.88
2019-04-30T02:08:08.526Z,94248.88
2019-04-30T02:10:34.920Z,94255.48
2019-04-30T02:13:01.252Z,94244.06
2019-04-30T02:15:29.178Z,94249.03
2019-04-30T02:17:53.951Z,94237.42
2019-04-30T02:20:20.329Z,94228.22
2019-04-30T02:22:48.493Z,94241.89
2019-04-30T02:25:13.031Z,94231.17
2019-04-30T02:27:39.442Z,94226.11
2019-04-30T02:30:05.760Z,94241.23
2019-04-30T02:32:32.086Z,94236.08
2019-04-30T02:34:59.801Z,94239.60
2019-04-30T02:37:24.845Z,94244.44
2019-04-30T02:39:51.329Z,94235.55
2019-04-30T02:42:20.106Z,94239.88
2019-04-30T02:44:44.070Z,94247.30
2019-04-30T02:47:10.412Z,94228.44
2019-04-30T02:49:36.809Z,94232.91
2019-04-30T02:52:03.106Z,94246.95
2019-04-30T02:54:29.791Z,94225.98
2019-04-30T02:56:55.913Z,94222.59
2019-04-30T02:59:22.211Z,94226.62
2019-04-30T03:01:50.235Z,94223.22
2019-04-30T03:06:41.314Z,94238.03
2019-04-30T03:09:09.989Z,94234.48
2019-04-30T03:11:33.937Z,94229.95
2019-04-30T03:14:00.276Z,94232.19
2019-04-30T03:16:26.632Z,94245.27
2019-04-30T03:18:52.986Z,94236.99
2019-04-30T03:21:19.419Z,94217.97
2019-04-30T03:23:45.706Z,94236.73
2019-04-30T03:28:39.696Z,94227.48
2019-04-30T03:31:05.113Z,94248.64
2019-04-30T03:33:32.692Z,94235.62
2019-04-30T03:36:01.766Z,94236.63
2019-04-30T03:38:23.765Z,94235.52
2019-04-30T03:40:50.383Z,94236.34
2019-04-30T03:43:16.586Z,94242.19
2019-04-30T03:45:42.943Z,94242.62
2019-04-30T03:48:10.203Z,94240.95
2019-04-30T03:50:49.117Z,94231.45
2019-04-30T03:53:01.998Z,94242.08
2019-04-30T03:55:29.935Z,94250.98
2019-04-30T03:57:54.749Z,94243.30
2019-04-30T04:00:21.069Z,94235.11
2019-04-30T04:02:49.871Z,94252.59
2019-04-30T04:05:13.789Z,94238.11
2019-04-30T04:07:40.202Z,94240.19
2019-04-30T04:10:06.499Z,94238.92
2019-04-30T04:12:32.826Z,94245.25
2019-04-30T04:15:00.752Z,94234.77
2019-04-30T04:17:25.588Z,94248.02
2019-04-30T04:19:51.905Z,94241.27
2019-04-30T04:22:20.695Z,94237.39
2019-04-30T04:24:44.635Z,94241.14
2019-04-30T04:27:12.551Z,94244.38
2019-04-30T04:29:40.383Z,94236.16
2019-04-30T04:32:05.298Z,94237.28
2019-04-30T04:34:31.713Z,94241.84
2019-04-30T04:37:00.033Z,94233.94
2019-04-30T04:39:24.475Z,94236.86
2019-04-30T04:41:50.821Z,94235.14
2019-04-30T04:44:19.687Z,94229.17
2019-04-30T04:46:43.538Z,94236.80
2019-04-30T04:49:09.945Z,94242.55
2019-04-30T04:51:39.392Z,94231.70
2019-04-30T04:54:03.317Z,94232.81
2019-04-30T04:56:30.414Z,94242.20
2019-04-30T04:58:55.373Z,94239.85
2019-04-30T05:03:48.997Z,94240.23
2019-04-30T05:06:14.533Z,94235.41
2019-04-30T05:08:40.938Z,94219.39
2019-04-30T05:11:09.221Z,94227.32
2019-04-30T05:13:34.754Z,94228.78
2019-04-30T05:16:00.185Z,94221.98
2019-04-30T05:18:26.480Z,94219.27
2019-04-30T05:20:52.906Z,94226.68
2019-04-30T05:23:19.538Z,94235.42
2019-04-30T05:25:45.660Z,94225.30
2019-04-30T05:28:11.987Z,94222.50
2019-04-30T05:30:39.319Z,94236.92
2019-04-30T05:33:04.692Z,94229.99
2019-04-30T05:35:31.246Z,94218.38
2019-04-30T05:37:59.178Z,94229.70
2019-04-30T05:40:23.796Z,94231.84
2019-04-30T05:42:50.128Z,94225.08
2019-04-30T05:45:16.472Z,94228.01
2019-04-30T05:47:42.943Z,94225.94
2019-04-30T05:50:09.376Z,94219.99
2019-04-30T05:52:35.715Z,94214.82
2019-04-30T05:55:02.054Z,94220.81
2019-04-30T05:57:29.481Z,94216.28
2019-04-30T05:59:54.745Z,94224.42
2019-04-30T06:02:21.100Z,94217.78
2019-04-30T06:04:48.883Z,94222.14
2019-04-30T06:07:13.786Z,94217.92
2019-04-30T06:09:40.168Z,94224.02
2019-04-30T06:12:09.461Z,94222.72
2019-04-30T06:14:33.189Z,94225.59
2019-04-30T06:16:59.769Z,94218.28
2019-04-30T06:21:52.305Z,94229.48
2019-04-30T06:24:18.859Z,94226.28
2019-04-30T06:26:44.984Z,94221.25
2019-04-30T06:29:11.320Z,94218.75
2019-04-30T06:31:40.092Z,94227.59
2019-04-30T06:34:03.990Z,94224.79
2019-04-30T06:36:30.317Z,94190.77
2019-04-30T06:38:58.856Z,94214.09
2019-04-30T06:41:22.995Z,94214.09
2019-04-30T06:43:49.311Z,94188.91
2019-04-30T06:46:15.689Z,94188.91
2019-04-30T06:48:42.164Z,94215.31
2019-04-30T06:51:09.095Z,94211.88
2019-04-30T06:53:34.807Z,94207.69
2019-04-30T06:56:01.133Z,94202.52
2019-04-30T06:58:29.160Z,94204.72
2019-04-30T07:00:53.817Z,94211.09
2019-04-30T07:03:20.147Z,94204.20
2019-04-30T07:05:48.621Z,94196.28
2019-04-30T07:08:12.913Z,94196.28
2019-04-30T07:10:41.439Z,94202.99
2019-04-30T07:13:05.657Z,94204.67
2019-04-30T07:15:31.938Z,94204.67
2019-04-30T07:17:59.135Z,94207.78
2019-04-30T07:20:24.650Z,94189.43
2019-04-30T07:22:58.923Z,94189.43
2019-04-30T07:25:19.371Z,94197.86
2019-04-30T07:27:43.726Z,94198.47
2019-04-30T07:35:15.083Z,94199.42
2019-04-30T07:37:41.415Z,94203.33
2019-04-30T07:40:09.167Z,94204.54
2019-04-30T07:42:38.224Z,94210.05
2019-04-30T07:45:00.869Z,94209.66
2019-04-30T07:47:29.508Z,94209.62
2019-04-30T07:49:55.893Z,94214.22
2019-04-30T07:52:21.958Z,94214.44
2019-04-30T07:54:45.900Z,94216.19
2019-04-30T07:57:12.252Z,94215.15
2019-04-30T07:59:39.655Z,94221.44
2019-04-30T08:02:13.706Z,94218.61
2019-04-30T08:04:31.297Z,94223.17
2019-04-30T08:09:39.107Z,94226.76
2019-04-30T08:11:59.318Z,94226.45
2019-04-30T08:14:25.672Z,94233.29
2019-04-30T08:16:51.990Z,94231.45
2019-04-30T08:19:19.133Z,94229.81
2019-04-30T08:21:44.660Z,94224.31
2019-04-30T08:24:11.018Z,94225.98
2019-04-30T08:26:37.350Z,94214.36
2019-04-30T08:29:03.695Z,94222.32
2019-04-30T08:31:30.057Z,94221.20
2019-04-30T08:33:56.464Z,94218.83
2019-04-30T08:36:22.814Z,94217.75
2019-04-30T08:38:49.638Z,94214.61
2019-04-30T08:41:15.546Z,94220.58
2019-04-30T08:43:41.906Z,94216.77
2019-04-30T08:46:09.387Z,94216.19
2019-04-30T08:48:46.153Z,94209.38
2019-04-30T08:51:00.899Z,94210.50
2019-04-30T08:53:32.205Z,94206.14
2019-04-30T08:55:53.629Z,94208.28
2019-04-30T08:58:22.729Z,94202.44
2019-04-30T09:00:49.082Z,94180.81
2019-04-30T09:03:15.404Z,94180.81
2019-04-30T09:05:41.752Z,94190.75
2019-04-30T09:10:34.429Z,94187.37
2019-04-30T09:13:00.820Z,94200.80
2019-04-30T09:15:28.933Z,94207.89
2019-04-30T09:18:03.222Z,94220.38
2019-04-30T09:20:19.767Z,94243.53
2019-04-30T09:22:46.107Z,94241.77
2019-04-30T09:25:12.491Z,94246.63
2019-04-30T09:27:39.741Z,94246.63
2019-04-30T09:30:05.246Z,94217.42
2019-04-30T09:32:31.756Z,94244.35
2019-04-30T09:34:58.718Z,94223.61
2019-04-30T09:37:24.418Z,94223.61
2019-04-30T09:39:50.760Z,94229.23
2019-04-30T09:42:19.260Z,94222.17
2019-04-30T09:44:43.424Z,94211.81
2019-04-30T09:47:09.779Z,94201.59
2019-04-30T09:49:36.111Z,94201.59
2019-04-30T09:54:31.785Z,94197.09
2019-04-30T09:56:58.987Z,94232.72
2019-04-30T09:59:24.139Z,94234.28
2019-04-30T10:01:50.476Z,94227.15
2019-04-30T10:04:17.752Z,94216.78
2019-04-30T10:06:43.181Z,94225.69
2019-04-30T10:09:09.760Z,94214.61
2019-04-30T10:11:35.850Z,94201.03
2019-04-30T10:14:02.192Z,94201.23
2019-04-30T10:16:29.635Z,94211.38
2019-04-30T10:18:54.932Z,94211.38
2019-04-30T10:21:21.260Z,94230.00
2019-04-30T10:23:47.725Z,94230.00
2019-04-30T10:26:14.064Z,94247.88
2019-04-30T10:28:40.430Z,94246.25
2019-04-30T10:31:06.791Z,94254.37
2019-04-30T10:33:33.248Z,94243.05
2019-04-30T10:38:25.905Z,94285.31
2019-04-30T10:40:52.240Z,94271.86
2019-04-30T10:43:19.770Z,94271.86
2019-04-30T10:45:44.914Z,94278.36
2019-04-30T10:48:11.303Z,94284.33
2019-04-30T10:50:40.756Z,94271.53
2019-04-30T10:53:03.948Z,94273.34
2019-04-30T10:55:31.126Z,94269.97
2019-04-30T10:57:56.631Z,94264.59
2019-04-30T11:00:23.016Z,94262.68
2019-04-30T11:02:49.707Z,94241.67
2019-04-30T11:05:15.731Z,94237.30
2019-04-30T11:07:42.058Z,94228.23
2019-04-30T11:10:08.722Z,94222.57
2019-04-30T11:12:34.803Z,94222.25
2019-04-30T11:15:01.181Z,94218.52
2019-04-30T11:17:29.593Z,94200.68
2019-04-30T11:19:54.062Z,94200.68
2019-04-30T11:22:20.436Z,94219.78
2019-04-30T11:24:56.657Z,94215.76
2019-04-30T11:27:13.516Z,94227.89
2019-04-30T11:29:39.659Z,94201.66
2019-04-30T11:32:05.857Z,94209.11
2019-04-30T11:34:32.025Z,94216.58
2019-04-30T11:36:58.406Z,94220.10
2019-04-30T11:39:24.810Z,94205.52
2019-04-30T11:41:51.098Z,94222.37
2019-04-30T11:44:28.497Z,94215.10
2019-04-30T11:46:45.800Z,94212.67
2019-04-30T11:49:10.267Z,94211.36
2019-04-30T11:51:36.610Z,94197.94
2019-04-30T11:54:02.948Z,94193.58
2019-04-30T11:56:29.267Z,94191.14
2019-04-30T11:58:55.679Z,94208.61
2019-04-30T12:01:22.035Z,94188.22
2019-04-30T12:03:49.769Z,94188.22
2019-04-30T12:06:14.716Z,94181.72
2019-04-30T12:08:41.068Z,94176.05
2019-04-30T12:11:07.501Z,94155.56
2019-04-30T12:13:33.831Z,94155.56
2019-04-30T12:16:00.186Z,94172.80
2019-04-30T12:18:26.581Z,94167.95
2019-04-30T12:20:52.930Z,94149.19
2019-04-30T12:23:19.238Z,94155.34
2019-04-30T12:25:45.623Z,94134.81
2019-04-30T12:28:11.928Z,94121.84
2019-04-30T12:30:39.146Z,94131.39
2019-04-30T12:33:04.697Z,94131.39
2019-04-30T12:35:31.033Z,94117.61
2019-04-30T12:40:28.813Z,94093.79
2019-04-30T12:42:50.091Z,94115.70
2019-04-30T12:45:16.421Z,94115.70
2019-04-30T12:47:42.757Z,94126.59
2019-04-30T12:50:09.560Z,94124.01
2019-04-30T12:52:35.458Z,94112.20
2019-04-30T12:55:01.851Z,94114.93
2019-04-30T12:57:29.481Z,94105.41
2019-04-30T12:59:54.530Z,94095.84
2019-04-30T13:02:20.865Z,94100.23
2019-04-30T13:04:49.154Z,94089.86
2019-04-30T13:07:14.061Z,94080.16
2019-04-30T13:09:40.766Z,94087.77
2019-04-30T13:12:06.637Z,94068.81
2019-04-30T13:14:35.623Z,94074.81
2019-04-30T13:16:59.080Z,94068.31
2019-04-30T13:19:25.386Z,94068.20
2019-04-30T13:24:18.121Z,94062.17
2019-04-30T13:26:44.414Z,94059.77
2019-04-30T13:29:10.743Z,94057.47
2019-04-30T13:31:37.162Z,94058.95
2019-04-30T13:34:03.455Z,94055.55
2019-04-30T13:36:29.819Z,94056.21
2019-04-30T13:38:56.139Z,94049.89
2019-04-30T13:41:22.583Z,94044.70
2019-04-30T13:43:48.878Z,94037.56
2019-04-30T13:46:15.205Z,94038.56
2019-04-30T13:48:41.626Z,94033.37
2019-04-30T13:51:07.977Z,94039.02
2019-04-30T13:53:34.302Z,94037.23
2019-04-30T13:56:00.714Z,94040.31
2019-04-30T13:58:27.107Z,94036.27
2019-04-30T14:00:53.427Z,94032.05
2019-04-30T14:03:19.807Z,94040.97
2019-04-30T14:05:46.156Z,94038.05
2019-04-30T14:08:12.549Z,94042.27
2019-04-30T14:10:39.330Z,94033.53
2019-04-30T14:13:05.258Z,94033.37
2019-04-30T14:15:31.646Z,94034.16
2019-04-30T14:20:24.375Z,94050.52
2019-04-30T14:22:50.670Z,94043.74
2019-04-30T14:25:17.025Z,94053.92
2019-04-30T14:27:49.276Z,94051.19
2019-04-30T14:30:09.909Z,94057.81
2019-04-30T15:34:30.640Z,94095.54
2019-04-30T15:36:58.639Z,94096.17
2019-04-30T15:39:23.311Z,94080.95
2019-04-30T15:41:50.081Z,94098.76
2019-04-30T15:44:16.419Z,94088.57
2019-04-30T15:46:43.030Z,94104.91
2019-04-30T15:49:09.599Z,94102.02
2019-04-30T15:51:35.927Z,94113.19
2019-04-30T15:54:02.541Z,94115.44
2019-04-30T15:56:35.383Z,94112.21
2019-04-30T15:58:55.223Z,94096.99
2019-04-30T16:01:21.643Z,94088.88
2019-04-30T16:03:48.433Z,94113.19
2019-04-30T16:06:14.815Z,94086.94
2019-04-30T16:08:41.240Z,94097.79
2019-04-30T16:11:10.388Z,94099.27
2019-04-30T16:13:34.051Z,94101.86
2019-04-30T16:16:00.383Z,94083.55
2019-04-30T16:18:28.827Z,94093.41
2019-04-30T16:57:06.887Z,94154.90
2019-04-30T16:59:31.797Z,94171.39
2019-04-30T17:02:00.397Z,94175.78
2019-04-30T17:04:24.429Z,94170.44
2019-04-30T17:06:50.804Z,94174.80
2019-04-30T17:09:17.132Z,94179.62
2019-04-30T17:11:43.549Z,94179.79
2019-04-30T17:14:09.832Z,94170.39
2019-04-30T17:16:36.208Z,94187.38
2019-04-30T17:19:02.585Z,94187.86
2019-04-30T17:21:29.688Z,94189.80
2019-04-30T17:23:55.312Z,94192.19
2019-04-30T17:26:21.648Z,94195.59
2019-04-30T17:28:49.760Z,94206.07
2019-04-30T17:31:14.372Z,94214.81
2019-04-30T17:33:40.772Z,94228.92
2019-04-30T17:36:08.329Z,94228.92
2019-04-30T17:38:33.391Z,94220.92
2019-04-30T17:40:59.759Z,94235.01
2019-04-30T17:43:26.167Z,94235.01
2019-04-30T17:45:52.649Z,94223.83
2019-04-30T17:48:18.952Z,94249.75
2019-04-30T17:50:45.285Z,94244.94
2019-04-30T17:53:11.625Z,94249.24
2019-04-30T17:55:39.133Z,94252.00
2019-04-30T17:58:04.447Z,94262.02
2019-04-30T18:00:30.705Z,94264.43
2019-04-30T18:02:57.118Z,94263.48
2019-04-30T18:05:23.430Z,94259.06
2019-04-30T18:07:49.914Z,94259.06
2019-04-30T18:10:16.134Z,94272.65
2019-04-30T18:12:42.464Z,94280.12
2019-04-30T18:15:08.916Z,94288.03
2019-04-30T18:17:35.215Z,94304.03
2019-04-30T18:20:01.590Z,94296.07
2019-04-30T18:22:29.375Z,94316.63
2019-04-30T18:24:54.285Z,94316.63
2019-04-30T18:27:21.251Z,94318.20
2019-04-30T18:29:47.059Z,94328.55
2019-04-30T18:32:13.397Z,94343.77
2019-04-30T18:34:39.722Z,94343.77
2019-04-30T18:37:06.048Z,94343.77
2019-04-30T18:39:32.398Z,94331.41
2019-04-30T18:41:58.752Z,94326.53
2019-04-30T18:44:25.092Z,94328.30
2019-04-30T18:46:51.432Z,94345.33
2019-04-30T18:49:18.784Z,94349.55
2019-04-30T18:51:44.140Z,94358.27
2019-04-30T18:54:10.547Z,94335.52
2019-04-30T18:56:38.869Z,94367.45
2019-04-30T18:59:03.196Z,94367.96
2019-04-30T19:01:29.552Z,94357.70
2019-04-30T19:03:55.880Z,94357.70
2019-04-30T19:06:25.751Z,94369.86
2019-04-30T19:11:14.951Z,94378.19
2019-04-30T19:13:41.324Z,94383.82
2019-04-30T19:16:19.733Z,94392.19
2019-04-30T19:18:34.003Z,94395.20
2019-04-30T19:21:00.401Z,94394.50
2019-04-30T19:23:26.742Z,94394.50
2019-04-30T19:25:53.112Z,94399.46
2019-04-30T19:28:20.808Z,94398.59
2019-04-30T19:30:55.819Z,94393.86
2019-04-30T19:33:12.346Z,94392.05
2019-04-30T19:35:38.647Z,94385.41
2019-04-30T19:38:05.024Z,94389.73
2019-04-30T19:40:31.356Z,94375.86
2019-04-30T19:42:57.749Z,94380.84
2019-04-30T19:45:24.118Z,94386.72
2019-04-30T19:47:50.506Z,94386.72
2019-04-30T19:50:19.101Z,94391.52
2019-04-30T19:52:43.213Z,94390.05
2019-04-30T19:55:09.553Z,94379.50
2019-04-30T19:57:35.937Z,94384.67
2019-04-30T20:00:02.273Z,94388.66
2019-04-30T20:02:29.454Z,94378.32
2019-04-30T20:04:55.068Z,94385.84
2019-04-30T20:07:21.469Z,94385.66
2019-04-30T20:09:58.531Z,94385.78
2019-04-30T20:12:14.169Z,94383.20
2019-04-30T20:14:40.582Z,94386.89
2019-04-30T20:17:08.808Z,94376.03
2019-04-30T20:19:33.225Z,94386.18
2019-04-30T20:21:59.687Z,94383.89
2019-04-30T20:24:25.992Z,94383.67
2019-04-30T20:27:04.223Z,94383.96
2019-04-30T20:29:18.693Z,94385.38
2019-04-30T20:31:45.026Z,94388.12
2019-04-30T20:34:11.370Z,94385.36
2019-04-30T20:39:04.104Z,94389.77
2019-04-30T20:41:30.479Z,94393.46
2019-04-30T20:43:56.841Z,94398.28
2019-04-30T20:46:32.069Z,94402.44
2019-04-30T20:48:49.534Z,94412.64
2019-04-30T20:51:15.941Z,94415.16
2019-04-30T20:53:42.393Z,94412.05
2019-04-30T20:56:09.232Z,94411.57
2019-04-30T21:01:06.323Z,94404.87
2019-04-30T21:03:29.574Z,94413.55
2019-04-30T21:05:54.123Z,94407.27
2019-04-30T21:08:20.493Z,94405.31
2019-04-30T21:10:46.847Z,94405.44
2019-04-30T21:13:13.263Z,94409.46
2019-04-30T21:15:39.629Z,94411.83
2019-04-30T21:18:05.879Z,94408.11
2019-04-30T21:20:32.215Z,94411.29
2019-04-30T21:22:59.660Z,94406.41
2019-04-30T21:25:24.982Z,94406.09
2019-04-30T21:27:51.325Z,94413.83
2019-04-30T21:30:17.681Z,94405.55
2019-04-30T21:32:44.091Z,94410.84
2019-04-30T21:35:10.445Z,94409.02
2019-04-30T21:37:36.784Z,94395.11
2019-04-30T21:40:03.139Z,94386.55
2019-04-30T21:42:29.530Z,94381.55
2019-04-30T21:44:55.964Z,94378.42
2019-04-30T21:47:22.293Z,94368.45
2019-04-30T21:49:48.665Z,94359.17
2019-04-30T21:52:15.041Z,94375.44
2019-04-30T21:57:07.750Z,94377.80
2019-04-30T21:59:34.124Z,94385.22
2019-04-30T22:02:00.455Z,94390.03
2019-04-30T22:04:26.814Z,94392.73
2019-04-30T22:06:53.225Z,94394.52
2019-04-30T22:09:19.576Z,94398.98
2019-04-30T22:11:45.953Z,94387.66
2019-04-30T22:14:12.321Z,94393.91
2019-04-30T22:16:39.826Z,94387.47
2019-04-30T22:19:04.979Z,94387.87
2019-04-30T22:21:31.379Z,94381.89
2019-04-30T22:23:57.765Z,94375.60
2019-04-30T22:26:24.148Z,94357.83
2019-04-30T22:28:50.503Z,94374.94
2019-04-30T22:31:16.850Z,94373.14
2019-04-30T22:33:43.223Z,94387.29
2019-04-30T22:36:10.880Z,94383.20
2019-04-30T22:38:35.878Z,94385.45
2019-04-30T22:41:02.241Z,94380.89
2019-04-30T22:43:28.590Z,94383.47
2019-04-30T22:45:54.972Z,94379.76
2019-04-30T22:48:21.302Z,94391.17
2019-04-30T22:53:13.958Z,94395.43
2019-04-30T22:55:40.357Z,94381.17
2019-04-30T22:58:06.676Z,94374.27
2019-04-30T23:00:33.052Z,94379.42
2019-04-30T23:02:59.446Z,94374.14
2019-04-30T23:05:25.738Z,94378.41
2019-04-30T23:07:52.071Z,94370.33
2019-04-30T23:10:18.406Z,94371.61
2019-04-30T23:12:44.735Z,94376.23
2019-04-30T23:15:11.069Z,94379.77
2019-04-30T23:17:37.444Z,94374.89
2019-04-30T23:20:03.806Z,94381.33
2019-04-30T23:22:30.136Z,94384.85
2019-04-30T23:27:22.869Z,94369.31
2019-04-30T23:29:49.195Z,94368.18
2019-04-30T23:32:15.571Z,94363.49
2019-04-30T23:34:41.912Z,94364.59
2019-04-30T23:37:08.246Z,94342.69
2019-04-30T23:39:34.628Z,94359.17
2019-04-30T23:42:00.981Z,94339.66
2019-04-30T23:44:27.417Z,94343.52
2019-04-30T23:46:53.767Z,94363.11
2019-04-30T23:49:20.140Z,94366.98
2019-04-30T23:51:46.472Z,94351.17
2019-04-30T23:54:12.826Z,94345.83
2019-04-30T23:56:39.196Z,94351.59
2019-04-30T23:59:05.652Z,94363.04
